sensor_id;sensor_type;location;lat;lon;timestamp;P1;durP1;ratioP1;P2;durP2;ratioP2
20657;SDS011;10488;50.846;4.078;2023-06-26T00:02:14;4.63;;;2.85;;
20657;SDS011;10488;50.846;4.078;2023-06-26T00:04:41;5.93;;;3.05;;
20657;SDS011;10488;50.846;4.078;2023-06-26T00:07:08;5.47;;;3.10;;
20657;SDS011;10488;50.846;4.078;2023-06-26T00:09:34;6.10;;;4.22;;
20657;SDS011;10488;50.846;4.078;2023-06-26T00:11:59;11.18;;;3.22;;
20657;SDS011;10488;50.846;4.078;2023-06-26T00:14:25;3.88;;;3.22;;
20657;SDS011;10488;50.846;4.078;2023-06-26T00:16:51;6.32;;;3.38;;
20657;SDS011;10488;50.846;4.078;2023-06-26T00:19:17;5.25;;;3.00;;
20657;SDS011;10488;50.846;4.078;2023-06-26T00:21:43;5.90;;;3.80;;
20657;SDS011;10488;50.846;4.078;2023-06-26T00:24:16;7.57;;;3.97;;
20657;SDS011;10488;50.846;4.078;2023-06-26T00:26:42;8.75;;;4.00;;
20657;SDS011;10488;50.846;4.078;2023-06-26T00:29:08;7.53;;;3.63;;
20657;SDS011;10488;50.846;4.078;2023-06-26T00:31:34;6.10;;;3.45;;
20657;SDS011;10488;50.846;4.078;2023-06-26T00:34:03;5.40;;;3.50;;
20657;SDS011;10488;50.846;4.078;2023-06-26T00:36:28;6.50;;;3.70;;
20657;SDS011;10488;50.846;4.078;2023-06-26T00:38:54;7.65;;;3.40;;
20657;SDS011;10488;50.846;4.078;2023-06-26T00:41:20;6.10;;;3.38;;
20657;SDS011;10488;50.846;4.078;2023-06-26T00:43:45;7.10;;;3.08;;
20657;SDS011;10488;50.846;4.078;2023-06-26T00:46:14;4.43;;;3.35;;
20657;SDS011;10488;50.846;4.078;2023-06-26T00:48:41;7.53;;;3.78;;
20657;SDS011;10488;50.846;4.078;2023-06-26T00:51:08;11.02;;;4.20;;
20657;SDS011;10488;50.846;4.078;2023-06-26T00:53:34;11.18;;;4.00;;
20657;SDS011;10488;50.846;4.078;2023-06-26T00:56:00;7.40;;;3.40;;
20657;SDS011;10488;50.846;4.078;2023-06-26T00:58:29;5.00;;;3.28;;
20657;SDS011;10488;50.846;4.078;2023-06-26T01:00:55;4.72;;;2.72;;
20657;SDS011;10488;50.846;4.078;2023-06-26T01:03:22;7.07;;;3.25;;
20657;SDS011;10488;50.846;4.078;2023-06-26T01:05:49;5.45;;;3.35;;
20657;SDS011;10488;50.846;4.078;2023-06-26T01:08:17;5.05;;;2.88;;
20657;SDS011;10488;50.846;4.078;2023-06-26T01:10:43;8.43;;;3.03;;
20657;SDS011;10488;50.846;4.078;2023-06-26T01:13:10;5.70;;;3.10;;
20657;SDS011;10488;50.846;4.078;2023-06-26T01:15:37;4.55;;;2.50;;
20657;SDS011;10488;50.846;4.078;2023-06-26T01:18:04;5.72;;;2.85;;
20657;SDS011;10488;50.846;4.078;2023-06-26T01:20:32;8.65;;;3.72;;
20657;SDS011;10488;50.846;4.078;2023-06-26T01:23:05;7.18;;;3.28;;
20657;SDS011;10488;50.846;4.078;2023-06-26T01:28:34;8.48;;;3.20;;
20657;SDS011;10488;50.846;4.078;2023-06-26T01:31:03;5.03;;;3.30;;
20657;SDS011;10488;50.846;4.078;2023-06-26T01:33:30;6.55;;;3.03;;
20657;SDS011;10488;50.846;4.078;2023-06-26T01:35:57;7.85;;;3.33;;
20657;SDS011;10488;50.846;4.078;2023-06-26T01:38:22;6.07;;;3.20;;
20657;SDS011;10488;50.846;4.078;2023-06-26T01:40:48;6.65;;;3.25;;
20657;SDS011;10488;50.846;4.078;2023-06-26T01:43:20;4.75;;;3.25;;
20657;SDS011;10488;50.846;4.078;2023-06-26T01:46:06;6.70;;;3.65;;
20657;SDS011;10488;50.846;4.078;2023-06-26T01:54:49;5.85;;;3.50;;
20657;SDS011;10488;50.846;4.078;2023-06-26T01:57:26;8.27;;;3.95;;
20657;SDS011;10488;50.846;4.078;2023-06-26T01:59:55;5.35;;;3.50;;
20657;SDS011;10488;50.846;4.078;2023-06-26T02:02:23;9.93;;;3.65;;
20657;SDS011;10488;50.846;4.078;2023-06-26T02:04:49;7.82;;;3.25;;
20657;SDS011;10488;50.846;4.078;2023-06-26T02:07:15;10.82;;;3.90;;
20657;SDS011;10488;50.846;4.078;2023-06-26T02:09:41;8.05;;;4.03;;
20657;SDS011;10488;50.846;4.078;2023-06-26T02:12:07;4.60;;;3.42;;
20657;SDS011;10488;50.846;4.078;2023-06-26T02:14:33;7.68;;;3.60;;
20657;SDS011;10488;50.846;4.078;2023-06-26T02:16:58;9.07;;;3.95;;
20657;SDS011;10488;50.846;4.078;2023-06-26T02:19:25;11.77;;;4.28;;
20657;SDS011;10488;50.846;4.078;2023-06-26T02:21:52;9.43;;;3.67;;
20657;SDS011;10488;50.846;4.078;2023-06-26T02:24:18;8.43;;;3.83;;
20657;SDS011;10488;50.846;4.078;2023-06-26T02:26:44;10.48;;;4.13;;
20657;SDS011;10488;50.846;4.078;2023-06-26T02:29:10;7.30;;;3.90;;
20657;SDS011;10488;50.846;4.078;2023-06-26T02:31:36;11.20;;;4.78;;
20657;SDS011;10488;50.846;4.078;2023-06-26T02:34:02;11.80;;;4.30;;
20657;SDS011;10488;50.846;4.078;2023-06-26T02:36:28;13.07;;;4.32;;
20657;SDS011;10488;50.846;4.078;2023-06-26T02:38:54;13.02;;;5.10;;
20657;SDS011;10488;50.846;4.078;2023-06-26T02:41:20;13.38;;;4.95;;
20657;SDS011;10488;50.846;4.078;2023-06-26T02:43:45;13.75;;;4.57;;
20657;SDS011;10488;50.846;4.078;2023-06-26T02:46:11;13.85;;;5.57;;
20657;SDS011;10488;50.846;4.078;2023-06-26T02:48:36;11.38;;;4.47;;
20657;SDS011;10488;50.846;4.078;2023-06-26T02:51:02;15.80;;;4.55;;
20657;SDS011;10488;50.846;4.078;2023-06-26T02:53:28;14.13;;;4.95;;
20657;SDS011;10488;50.846;4.078;2023-06-26T02:55:53;11.80;;;4.55;;
20657;SDS011;10488;50.846;4.078;2023-06-26T02:58:19;12.50;;;4.78;;
20657;SDS011;10488;50.846;4.078;2023-06-26T03:00:45;13.93;;;4.30;;
20657;SDS011;10488;50.846;4.078;2023-06-26T03:03:12;12.57;;;4.82;;
20657;SDS011;10488;50.846;4.078;2023-06-26T03:05:38;16.52;;;6.00;;
20657;SDS011;10488;50.846;4.078;2023-06-26T03:08:03;12.38;;;4.82;;
20657;SDS011;10488;50.846;4.078;2023-06-26T03:10:29;13.73;;;5.32;;
20657;SDS011;10488;50.846;4.078;2023-06-26T03:12:55;19.05;;;5.80;;
20657;SDS011;10488;50.846;4.078;2023-06-26T03:15:21;13.48;;;5.15;;
20657;SDS011;10488;50.846;4.078;2023-06-26T03:17:46;12.48;;;5.70;;
20657;SDS011;10488;50.846;4.078;2023-06-26T03:20:12;15.25;;;5.15;;
20657;SDS011;10488;50.846;4.078;2023-06-26T03:22:38;11.68;;;4.75;;
20657;SDS011;10488;50.846;4.078;2023-06-26T03:25:03;17.35;;;4.55;;
20657;SDS011;10488;50.846;4.078;2023-06-26T03:27:30;18.17;;;5.90;;
20657;SDS011;10488;50.846;4.078;2023-06-26T03:29:55;14.40;;;4.90;;
20657;SDS011;10488;50.846;4.078;2023-06-26T03:32:21;16.25;;;5.22;;
20657;SDS011;10488;50.846;4.078;2023-06-26T03:34:47;12.45;;;5.00;;
20657;SDS011;10488;50.846;4.078;2023-06-26T03:37:12;15.63;;;5.20;;
20657;SDS011;10488;50.846;4.078;2023-06-26T03:39:38;17.88;;;5.20;;
20657;SDS011;10488;50.846;4.078;2023-06-26T03:42:04;21.15;;;4.93;;
20657;SDS011;10488;50.846;4.078;2023-06-26T03:44:30;17.95;;;5.70;;
20657;SDS011;10488;50.846;4.078;2023-06-26T03:46:55;13.10;;;5.38;;
20657;SDS011;10488;50.846;4.078;2023-06-26T03:49:21;19.48;;;5.22;;
20657;SDS011;10488;50.846;4.078;2023-06-26T03:51:47;16.63;;;5.00;;
20657;SDS011;10488;50.846;4.078;2023-06-26T03:54:12;13.18;;;5.05;;
20657;SDS011;10488;50.846;4.078;2023-06-26T03:56:38;18.08;;;5.85;;
20657;SDS011;10488;50.846;4.078;2023-06-26T03:59:04;18.27;;;5.80;;
20657;SDS011;10488;50.846;4.078;2023-06-26T04:01:29;17.70;;;5.28;;
20657;SDS011;10488;50.846;4.078;2023-06-26T04:03:55;12.88;;;4.75;;
20657;SDS011;10488;50.846;4.078;2023-06-26T04:06:21;19.60;;;4.63;;
20657;SDS011;10488;50.846;4.078;2023-06-26T04:08:46;22.50;;;5.60;;
20657;SDS011;10488;50.846;4.078;2023-06-26T04:11:13;18.00;;;4.70;;
20657;SDS011;10488;50.846;4.078;2023-06-26T04:13:38;18.20;;;4.70;;
20657;SDS011;10488;50.846;4.078;2023-06-26T04:16:04;17.83;;;4.93;;
20657;SDS011;10488;50.846;4.078;2023-06-26T04:18:31;19.52;;;5.25;;
20657;SDS011;10488;50.846;4.078;2023-06-26T04:21:03;14.73;;;4.75;;
20657;SDS011;10488;50.846;4.078;2023-06-26T04:23:34;19.30;;;5.45;;
20657;SDS011;10488;50.846;4.078;2023-06-26T04:26:01;19.60;;;5.00;;
20657;SDS011;10488;50.846;4.078;2023-06-26T04:28:28;19.38;;;5.00;;
20657;SDS011;10488;50.846;4.078;2023-06-26T04:30:53;20.80;;;4.47;;
20657;SDS011;10488;50.846;4.078;2023-06-26T04:33:19;13.05;;;3.83;;
20657;SDS011;10488;50.846;4.078;2023-06-26T04:35:45;12.88;;;4.20;;
20657;SDS011;10488;50.846;4.078;2023-06-26T04:38:13;15.15;;;4.25;;
20657;SDS011;10488;50.846;4.078;2023-06-26T04:40:39;17.55;;;5.00;;
20657;SDS011;10488;50.846;4.078;2023-06-26T04:43:05;12.70;;;4.28;;
20657;SDS011;10488;50.846;4.078;2023-06-26T04:45:30;18.90;;;5.03;;
20657;SDS011;10488;50.846;4.078;2023-06-26T04:47:56;14.02;;;4.25;;
20657;SDS011;10488;50.846;4.078;2023-06-26T04:50:22;16.27;;;5.03;;
20657;SDS011;10488;50.846;4.078;2023-06-26T04:52:48;13.23;;;4.07;;
20657;SDS011;10488;50.846;4.078;2023-06-26T04:55:13;14.73;;;4.13;;
20657;SDS011;10488;50.846;4.078;2023-06-26T04:57:39;18.33;;;4.20;;
20657;SDS011;10488;50.846;4.078;2023-06-26T05:00:05;12.48;;;4.13;;
20657;SDS011;10488;50.846;4.078;2023-06-26T05:02:36;24.83;;;5.18;;
20657;SDS011;10488;50.846;4.078;2023-06-26T05:05:02;11.98;;;3.92;;
20657;SDS011;10488;50.846;4.078;2023-06-26T05:07:27;12.65;;;3.88;;
20657;SDS011;10488;50.846;4.078;2023-06-26T05:09:53;11.77;;;3.97;;
20657;SDS011;10488;50.846;4.078;2023-06-26T05:12:18;13.52;;;4.00;;
20657;SDS011;10488;50.846;4.078;2023-06-26T05:14:44;10.82;;;3.92;;
20657;SDS011;10488;50.846;4.078;2023-06-26T05:17:11;12.43;;;3.53;;
20657;SDS011;10488;50.846;4.078;2023-06-26T05:19:38;14.52;;;3.53;;
20657;SDS011;10488;50.846;4.078;2023-06-26T05:22:04;13.65;;;3.30;;
20657;SDS011;10488;50.846;4.078;2023-06-26T05:24:35;14.80;;;3.35;;
20657;SDS011;10488;50.846;4.078;2023-06-26T05:27:02;15.95;;;3.60;;
20657;SDS011;10488;50.846;4.078;2023-06-26T05:29:30;9.63;;;3.15;;
20657;SDS011;10488;50.846;4.078;2023-06-26T05:31:56;14.80;;;3.08;;
20657;SDS011;10488;50.846;4.078;2023-06-26T05:34:23;10.35;;;2.95;;
20657;SDS011;10488;50.846;4.078;2023-06-26T05:36:52;9.43;;;2.95;;
20657;SDS011;10488;50.846;4.078;2023-06-26T05:39:23;6.90;;;2.65;;
20657;SDS011;10488;50.846;4.078;2023-06-26T05:41:49;10.27;;;2.38;;
20657;SDS011;10488;50.846;4.078;2023-06-26T05:44:15;9.18;;;2.65;;
20657;SDS011;10488;50.846;4.078;2023-06-26T05:46:41;13.10;;;2.70;;
20657;SDS011;10488;50.846;4.078;2023-06-26T05:49:07;8.85;;;2.03;;
20657;SDS011;10488;50.846;4.078;2023-06-26T05:51:32;6.50;;;1.92;;
20657;SDS011;10488;50.846;4.078;2023-06-26T05:53:58;8.38;;;2.35;;
20657;SDS011;10488;50.846;4.078;2023-06-26T05:56:24;9.93;;;2.30;;
20657;SDS011;10488;50.846;4.078;2023-06-26T05:58:51;5.43;;;2.10;;
20657;SDS011;10488;50.846;4.078;2023-06-26T06:01:17;6.00;;;2.28;;
20657;SDS011;10488;50.846;4.078;2023-06-26T06:03:43;6.68;;;2.00;;
20657;SDS011;10488;50.846;4.078;2023-06-26T06:06:09;7.50;;;2.22;;
20657;SDS011;10488;50.846;4.078;2023-06-26T06:08:36;6.20;;;2.47;;
20657;SDS011;10488;50.846;4.078;2023-06-26T06:11:01;9.25;;;1.88;;
20657;SDS011;10488;50.846;4.078;2023-06-26T06:13:27;11.70;;;2.03;;
20657;SDS011;10488;50.846;4.078;2023-06-26T06:15:53;10.60;;;1.75;;
20657;SDS011;10488;50.846;4.078;2023-06-26T06:18:20;7.30;;;1.67;;
20657;SDS011;10488;50.846;4.078;2023-06-26T06:20:46;9.00;;;2.05;;
20657;SDS011;10488;50.846;4.078;2023-06-26T06:23:12;6.05;;;1.73;;
20657;SDS011;10488;50.846;4.078;2023-06-26T06:25:38;6.55;;;1.70;;
20657;SDS011;10488;50.846;4.078;2023-06-26T06:28:04;13.07;;;2.83;;
20657;SDS011;10488;50.846;4.078;2023-06-26T06:30:30;7.03;;;1.55;;
20657;SDS011;10488;50.846;4.078;2023-06-26T06:32:56;6.95;;;2.55;;
20657;SDS011;10488;50.846;4.078;2023-06-26T06:35:22;10.63;;;1.85;;
20657;SDS011;10488;50.846;4.078;2023-06-26T06:37:48;8.32;;;1.90;;
20657;SDS011;10488;50.846;4.078;2023-06-26T06:40:14;11.77;;;1.85;;
20657;SDS011;10488;50.846;4.078;2023-06-26T06:42:40;7.68;;;2.03;;
20657;SDS011;10488;50.846;4.078;2023-06-26T06:45:06;4.95;;;1.58;;
20657;SDS011;10488;50.846;4.078;2023-06-26T06:47:32;8.05;;;1.60;;
20657;SDS011;10488;50.846;4.078;2023-06-26T06:49:59;6.53;;;1.38;;
20657;SDS011;10488;50.846;4.078;2023-06-26T06:52:32;9.20;;;1.63;;
20657;SDS011;10488;50.846;4.078;2023-06-26T06:55:05;7.88;;;1.67;;
20657;SDS011;10488;50.846;4.078;2023-06-26T06:57:33;3.72;;;1.30;;
20657;SDS011;10488;50.846;4.078;2023-06-26T07:00:04;7.82;;;2.25;;
20657;SDS011;10488;50.846;4.078;2023-06-26T07:02:30;6.28;;;1.83;;
20657;SDS011;10488;50.846;4.078;2023-06-26T07:04:56;5.72;;;1.60;;
20657;SDS011;10488;50.846;4.078;2023-06-26T07:07:22;7.03;;;1.83;;
20657;SDS011;10488;50.846;4.078;2023-06-26T07:09:47;6.38;;;1.48;;
20657;SDS011;10488;50.846;4.078;2023-06-26T07:12:13;6.00;;;1.60;;
20657;SDS011;10488;50.846;4.078;2023-06-26T07:14:39;4.65;;;1.70;;
20657;SDS011;10488;50.846;4.078;2023-06-26T07:17:04;6.00;;;1.77;;
20657;SDS011;10488;50.846;4.078;2023-06-26T07:19:30;3.80;;;1.90;;
20657;SDS011;10488;50.846;4.078;2023-06-26T07:21:56;7.68;;;1.55;;
20657;SDS011;10488;50.846;4.078;2023-06-26T07:24:21;7.53;;;1.63;;
20657;SDS011;10488;50.846;4.078;2023-06-26T07:26:47;5.50;;;1.50;;
20657;SDS011;10488;50.846;4.078;2023-06-26T07:29:12;7.10;;;1.52;;
20657;SDS011;10488;50.846;4.078;2023-06-26T07:31:38;10.63;;;1.40;;
20657;SDS011;10488;50.846;4.078;2023-06-26T07:34:04;7.43;;;1.58;;
20657;SDS011;10488;50.846;4.078;2023-06-26T07:36:29;5.90;;;1.42;;
20657;SDS011;10488;50.846;4.078;2023-06-26T07:38:55;6.38;;;1.42;;
20657;SDS011;10488;50.846;4.078;2023-06-26T07:41:21;5.28;;;1.55;;
20657;SDS011;10488;50.846;4.078;2023-06-26T07:43:46;10.93;;;2.38;;
20657;SDS011;10488;50.846;4.078;2023-06-26T07:46:12;5.00;;;1.50;;
20657;SDS011;10488;50.846;4.078;2023-06-26T07:48:37;7.30;;;1.20;;
20657;SDS011;10488;50.846;4.078;2023-06-26T07:51:03;6.60;;;1.50;;
20657;SDS011;10488;50.846;4.078;2023-06-26T07:53:29;6.03;;;1.58;;
20657;SDS011;10488;50.846;4.078;2023-06-26T07:55:54;7.30;;;1.35;;
20657;SDS011;10488;50.846;4.078;2023-06-26T07:58:20;5.03;;;1.38;;
20657;SDS011;10488;50.846;4.078;2023-06-26T08:00:45;6.80;;;1.50;;
20657;SDS011;10488;50.846;4.078;2023-06-26T08:03:11;4.13;;;1.30;;
20657;SDS011;10488;50.846;4.078;2023-06-26T08:05:37;4.65;;;1.35;;
20657;SDS011;10488;50.846;4.078;2023-06-26T08:08:02;4.65;;;1.23;;
20657;SDS011;10488;50.846;4.078;2023-06-26T08:10:28;4.32;;;1.30;;
20657;SDS011;10488;50.846;4.078;2023-06-26T08:12:55;7.38;;;1.45;;
20657;SDS011;10488;50.846;4.078;2023-06-26T08:15:21;5.60;;;1.08;;
20657;SDS011;10488;50.846;4.078;2023-06-26T08:17:46;6.60;;;1.33;;
20657;SDS011;10488;50.846;4.078;2023-06-26T08:20:12;7.28;;;1.75;;
20657;SDS011;10488;50.846;4.078;2023-06-26T08:22:38;6.20;;;1.30;;
20657;SDS011;10488;50.846;4.078;2023-06-26T08:25:04;6.60;;;1.30;;
20657;SDS011;10488;50.846;4.078;2023-06-26T08:27:31;3.40;;;1.00;;
20657;SDS011;10488;50.846;4.078;2023-06-26T08:29:57;3.97;;;1.02;;
20657;SDS011;10488;50.846;4.078;2023-06-26T08:32:23;9.40;;;1.40;;
20657;SDS011;10488;50.846;4.078;2023-06-26T08:34:50;3.65;;;0.85;;
20657;SDS011;10488;50.846;4.078;2023-06-26T08:37:15;3.60;;;1.38;;
20657;SDS011;10488;50.846;4.078;2023-06-26T08:39:41;6.18;;;1.27;;
20657;SDS011;10488;50.846;4.078;2023-06-26T08:42:07;5.13;;;1.65;;
20657;SDS011;10488;50.846;4.078;2023-06-26T08:44:33;5.13;;;1.13;;
20657;SDS011;10488;50.846;4.078;2023-06-26T08:47:01;3.30;;;1.27;;
20657;SDS011;10488;50.846;4.078;2023-06-26T08:49:30;5.78;;;1.20;;
20657;SDS011;10488;50.846;4.078;2023-06-26T08:52:13;5.47;;;1.30;;
20657;SDS011;10488;50.846;4.078;2023-06-26T08:54:49;5.45;;;1.65;;
20657;SDS011;10488;50.846;4.078;2023-06-26T08:57:21;3.67;;;0.95;;
20657;SDS011;10488;50.846;4.078;2023-06-26T08:59:48;4.15;;;1.27;;
20657;SDS011;10488;50.846;4.078;2023-06-26T09:02:14;4.63;;;1.25;;
20657;SDS011;10488;50.846;4.078;2023-06-26T09:04:40;9.48;;;1.85;;
20657;SDS011;10488;50.846;4.078;2023-06-26T09:07:07;4.35;;;1.15;;
20657;SDS011;10488;50.846;4.078;2023-06-26T09:09:33;5.50;;;1.15;;
20657;SDS011;10488;50.846;4.078;2023-06-26T09:11:58;6.82;;;1.20;;
20657;SDS011;10488;50.846;4.078;2023-06-26T09:14:26;6.18;;;1.15;;
20657;SDS011;10488;50.846;4.078;2023-06-26T09:16:52;3.78;;;1.08;;
20657;SDS011;10488;50.846;4.078;2023-06-26T09:19:17;2.70;;;1.15;;
20657;SDS011;10488;50.846;4.078;2023-06-26T09:21:43;5.70;;;1.33;;
20657;SDS011;10488;50.846;4.078;2023-06-26T09:24:09;3.97;;;1.73;;
20657;SDS011;10488;50.846;4.078;2023-06-26T09:26:35;2.83;;;0.80;;
20657;SDS011;10488;50.846;4.078;2023-06-26T09:29:02;5.15;;;1.10;;
20657;SDS011;10488;50.846;4.078;2023-06-26T09:31:29;5.50;;;1.33;;
20657;SDS011;10488;50.846;4.078;2023-06-26T09:33:58;5.93;;;2.08;;
20657;SDS011;10488;50.846;4.078;2023-06-26T09:36:26;4.68;;;0.98;;
20657;SDS011;10488;50.846;4.078;2023-06-26T09:38:53;3.40;;;1.20;;
20657;SDS011;10488;50.846;4.078;2023-06-26T09:41:20;6.03;;;1.25;;
20657;SDS011;10488;50.846;4.078;2023-06-26T09:43:49;7.68;;;1.65;;
20657;SDS011;10488;50.846;4.078;2023-06-26T09:46:25;2.40;;;1.10;;
20657;SDS011;10488;50.846;4.078;2023-06-26T09:49:25;3.70;;;0.90;;
20657;SDS011;10488;50.846;4.078;2023-06-26T09:51:43;4.45;;;1.27;;
20657;SDS011;10488;50.846;4.078;2023-06-26T09:54:09;6.85;;;1.23;;
20657;SDS011;10488;50.846;4.078;2023-06-26T09:56:35;3.40;;;1.33;;
20657;SDS011;10488;50.846;4.078;2023-06-26T09:59:02;3.85;;;1.45;;
20657;SDS011;10488;50.846;4.078;2023-06-26T10:01:30;5.80;;;1.50;;
20657;SDS011;10488;50.846;4.078;2023-06-26T10:03:56;4.60;;;1.60;;
20657;SDS011;10488;50.846;4.078;2023-06-26T10:06:56;8.07;;;1.40;;
20657;SDS011;10488;50.846;4.078;2023-06-26T10:09:19;6.28;;;1.52;;
20657;SDS011;10488;50.846;4.078;2023-06-26T10:11:47;3.92;;;1.52;;
20657;SDS011;10488;50.846;4.078;2023-06-26T10:14:17;5.32;;;1.25;;
20657;SDS011;10488;50.846;4.078;2023-06-26T10:16:46;6.85;;;1.67;;
20657;SDS011;10488;50.846;4.078;2023-06-26T10:19:14;5.85;;;1.50;;
20657;SDS011;10488;50.846;4.078;2023-06-26T10:21:48;4.05;;;1.48;;
20657;SDS011;10488;50.846;4.078;2023-06-26T10:24:19;4.47;;;1.60;;
20657;SDS011;10488;50.846;4.078;2023-06-26T10:26:47;9.52;;;2.05;;
20657;SDS011;10488;50.846;4.078;2023-06-26T10:29:15;3.33;;;1.23;;
20657;SDS011;10488;50.846;4.078;2023-06-26T10:31:44;4.93;;;1.55;;
20657;SDS011;10488;50.846;4.078;2023-06-26T10:34:14;5.53;;;1.23;;
20657;SDS011;10488;50.846;4.078;2023-06-26T10:36:40;5.00;;;1.38;;
20657;SDS011;10488;50.846;4.078;2023-06-26T10:39:06;6.47;;;1.52;;
20657;SDS011;10488;50.846;4.078;2023-06-26T10:41:38;6.60;;;1.75;;
20657;SDS011;10488;50.846;4.078;2023-06-26T10:44:09;4.68;;;1.50;;
20657;SDS011;10488;50.846;4.078;2023-06-26T10:49:14;2.20;;;1.35;;
20657;SDS011;10488;50.846;4.078;2023-06-26T10:51:45;4.00;;;1.40;;
20657;SDS011;10488;50.846;4.078;2023-06-26T10:54:18;6.07;;;1.73;;
20657;SDS011;10488;50.846;4.078;2023-06-26T10:56:50;2.92;;;1.55;;
20657;SDS011;10488;50.846;4.078;2023-06-26T10:59:26;5.70;;;2.15;;
20657;SDS011;10488;50.846;4.078;2023-06-26T11:02:00;5.10;;;1.48;;
20657;SDS011;10488;50.846;4.078;2023-06-26T11:04:46;4.95;;;1.63;;
20657;SDS011;10488;50.846;4.078;2023-06-26T11:07:15;8.25;;;1.98;;
20657;SDS011;10488;50.846;4.078;2023-06-26T11:15:01;7.35;;;1.70;;
20657;SDS011;10488;50.846;4.078;2023-06-26T11:17:27;4.38;;;1.40;;
20657;SDS011;10488;50.846;4.078;2023-06-26T11:19:53;8.82;;;1.70;;
20657;SDS011;10488;50.846;4.078;2023-06-26T11:22:20;3.42;;;1.58;;
20657;SDS011;10488;50.846;4.078;2023-06-26T11:24:49;3.97;;;1.60;;
20657;SDS011;10488;50.846;4.078;2023-06-26T11:27:19;2.45;;;1.40;;
20657;SDS011;10488;50.846;4.078;2023-06-26T11:29:48;4.35;;;1.08;;
20657;SDS011;10488;50.846;4.078;2023-06-26T11:32:14;6.05;;;1.40;;
20657;SDS011;10488;50.846;4.078;2023-06-26T11:34:40;6.13;;;1.48;;
20657;SDS011;10488;50.846;4.078;2023-06-26T11:37:08;6.45;;;1.65;;
20657;SDS011;10488;50.846;4.078;2023-06-26T11:39:33;5.32;;;1.20;;
20657;SDS011;10488;50.846;4.078;2023-06-26T11:41:59;4.15;;;1.10;;
20657;SDS011;10488;50.846;4.078;2023-06-26T11:44:29;2.17;;;0.90;;
20657;SDS011;10488;50.846;4.078;2023-06-26T11:46:56;4.88;;;1.20;;
20657;SDS011;10488;50.846;4.078;2023-06-26T11:49:22;6.40;;;1.48;;
20657;SDS011;10488;50.846;4.078;2023-06-26T11:51:50;4.20;;;1.17;;
20657;SDS011;10488;50.846;4.078;2023-06-26T11:54:22;5.85;;;1.15;;
20657;SDS011;10488;50.846;4.078;2023-06-26T11:56:57;3.78;;;1.50;;
20657;SDS011;10488;50.846;4.078;2023-06-26T11:59:24;5.32;;;1.20;;
20657;SDS011;10488;50.846;4.078;2023-06-26T12:01:58;3.30;;;1.58;;
20657;SDS011;10488;50.846;4.078;2023-06-26T12:04:23;3.40;;;1.23;;
20657;SDS011;10488;50.846;4.078;2023-06-26T12:06:50;3.55;;;0.93;;
20657;SDS011;10488;50.846;4.078;2023-06-26T12:09:20;14.93;;;1.80;;
20657;SDS011;10488;50.846;4.078;2023-06-26T12:11:47;6.80;;;1.25;;
20657;SDS011;10488;50.846;4.078;2023-06-26T12:14:16;3.75;;;1.30;;
20657;SDS011;10488;50.846;4.078;2023-06-26T12:16:44;4.50;;;1.13;;
20657;SDS011;10488;50.846;4.078;2023-06-26T12:19:10;5.63;;;1.70;;
20657;SDS011;10488;50.846;4.078;2023-06-26T12:24:02;4.97;;;1.02;;
20657;SDS011;10488;50.846;4.078;2023-06-26T12:26:28;3.92;;;1.30;;
20657;SDS011;10488;50.846;4.078;2023-06-26T12:29:01;6.03;;;1.13;;
20657;SDS011;10488;50.846;4.078;2023-06-26T12:31:31;5.20;;;1.10;;
20657;SDS011;10488;50.846;4.078;2023-06-26T12:33:58;9.50;;;1.77;;
20657;SDS011;10488;50.846;4.078;2023-06-26T12:36:23;3.10;;;1.20;;
20657;SDS011;10488;50.846;4.078;2023-06-26T12:38:49;4.82;;;1.00;;
20657;SDS011;10488;50.846;4.078;2023-06-26T12:41:17;6.65;;;1.63;;
20657;SDS011;10488;50.846;4.078;2023-06-26T12:43:45;4.10;;;1.10;;
20657;SDS011;10488;50.846;4.078;2023-06-26T12:46:11;6.22;;;1.58;;
20657;SDS011;10488;50.846;4.078;2023-06-26T12:48:41;4.45;;;1.30;;
20657;SDS011;10488;50.846;4.078;2023-06-26T12:51:17;2.80;;;1.00;;
20657;SDS011;10488;50.846;4.078;2023-06-26T12:53:43;8.50;;;1.40;;
20657;SDS011;10488;50.846;4.078;2023-06-26T12:56:09;6.60;;;1.48;;
20657;SDS011;10488;50.846;4.078;2023-06-26T12:58:36;6.85;;;0.95;;
20657;SDS011;10488;50.846;4.078;2023-06-26T13:01:06;8.48;;;1.13;;
20657;SDS011;10488;50.846;4.078;2023-06-26T13:03:44;8.13;;;1.92;;
20657;SDS011;10488;50.846;4.078;2023-06-26T13:06:10;3.75;;;1.02;;
20657;SDS011;10488;50.846;4.078;2023-06-26T13:08:37;4.85;;;1.10;;
20657;SDS011;10488;50.846;4.078;2023-06-26T13:11:02;4.82;;;2.15;;
20657;SDS011;10488;50.846;4.078;2023-06-26T13:13:28;7.10;;;1.40;;
20657;SDS011;10488;50.846;4.078;2023-06-26T13:15:54;4.78;;;1.02;;
20657;SDS011;10488;50.846;4.078;2023-06-26T13:18:19;3.40;;;1.00;;
20657;SDS011;10488;50.846;4.078;2023-06-26T13:20:45;7.53;;;1.77;;
20657;SDS011;10488;50.846;4.078;2023-06-26T13:23:11;6.82;;;1.13;;
20657;SDS011;10488;50.846;4.078;2023-06-26T13:25:37;2.35;;;0.88;;
20657;SDS011;10488;50.846;4.078;2023-06-26T13:28:02;7.38;;;1.25;;
20657;SDS011;10488;50.846;4.078;2023-06-26T13:30:28;10.27;;;1.92;;
20657;SDS011;10488;50.846;4.078;2023-06-26T13:32:54;4.55;;;1.40;;
20657;SDS011;10488;50.846;4.078;2023-06-26T13:35:20;5.93;;;1.02;;
20657;SDS011;10488;50.846;4.078;2023-06-26T13:37:46;4.38;;;1.00;;
20657;SDS011;10488;50.846;4.078;2023-06-26T13:40:12;2.17;;;0.90;;
20657;SDS011;10488;50.846;4.078;2023-06-26T13:42:38;2.63;;;0.95;;
20657;SDS011;10488;50.846;4.078;2023-06-26T13:45:04;6.97;;;1.17;;
20657;SDS011;10488;50.846;4.078;2023-06-26T13:47:30;2.05;;;1.00;;
20657;SDS011;10488;50.846;4.078;2023-06-26T13:49:56;4.85;;;1.00;;
20657;SDS011;10488;50.846;4.078;2023-06-26T13:52:23;4.95;;;1.10;;
20657;SDS011;10488;50.846;4.078;2023-06-26T13:54:48;5.22;;;1.10;;
20657;SDS011;10488;50.846;4.078;2023-06-26T13:57:14;4.18;;;1.33;;
20657;SDS011;10488;50.846;4.078;2023-06-26T13:59:40;4.35;;;1.45;;
20657;SDS011;10488;50.846;4.078;2023-06-26T14:02:06;8.82;;;1.15;;
20657;SDS011;10488;50.846;4.078;2023-06-26T14:04:33;5.25;;;1.25;;
20657;SDS011;10488;50.846;4.078;2023-06-26T14:06:58;3.20;;;1.05;;
20657;SDS011;10488;50.846;4.078;2023-06-26T14:09:24;8.10;;;1.33;;
20657;SDS011;10488;50.846;4.078;2023-06-26T14:11:50;5.35;;;1.42;;
20657;SDS011;10488;50.846;4.078;2023-06-26T14:14:16;5.07;;;1.17;;
20657;SDS011;10488;50.846;4.078;2023-06-26T14:16:41;2.67;;;1.00;;
20657;SDS011;10488;50.846;4.078;2023-06-26T14:19:07;7.22;;;1.20;;
20657;SDS011;10488;50.846;4.078;2023-06-26T14:21:39;6.40;;;1.08;;
20657;SDS011;10488;50.846;4.078;2023-06-26T14:24:05;2.60;;;1.30;;
20657;SDS011;10488;50.846;4.078;2023-06-26T14:26:31;3.33;;;1.13;;
20657;SDS011;10488;50.846;4.078;2023-06-26T14:28:58;4.90;;;1.40;;
20657;SDS011;10488;50.846;4.078;2023-06-26T14:31:24;3.67;;;1.40;;
20657;SDS011;10488;50.846;4.078;2023-06-26T14:33:50;7.53;;;1.75;;
20657;SDS011;10488;50.846;4.078;2023-06-26T14:36:16;5.88;;;1.27;;
20657;SDS011;10488;50.846;4.078;2023-06-26T14:38:42;5.03;;;1.40;;
20657;SDS011;10488;50.846;4.078;2023-06-26T14:41:07;8.05;;;1.20;;
20657;SDS011;10488;50.846;4.078;2023-06-26T14:43:33;7.30;;;1.63;;
20657;SDS011;10488;50.846;4.078;2023-06-26T14:45:59;5.60;;;1.60;;
20657;SDS011;10488;50.846;4.078;2023-06-26T14:48:25;5.78;;;1.70;;
20657;SDS011;10488;50.846;4.078;2023-06-26T14:50:50;7.90;;;1.70;;
20657;SDS011;10488;50.846;4.078;2023-06-26T14:53:16;2.63;;;1.15;;
20657;SDS011;10488;50.846;4.078;2023-06-26T14:55:42;6.40;;;1.60;;
20657;SDS011;10488;50.846;4.078;2023-06-26T14:58:08;4.65;;;1.30;;
20657;SDS011;10488;50.846;4.078;2023-06-26T15:00:34;10.75;;;1.63;;
20657;SDS011;10488;50.846;4.078;2023-06-26T15:03:00;4.13;;;1.48;;